Time;durP1;ratioP1;P1;durP2;ratioP2;P2;SDS_P1;SDS_P2;PMS_P1;PMS_P2;Temp;Humidity;BMP_temperature;BMP_pressure;BME280_temperature;BME280_humidity;BME280_pressure;Samples;Min_cycle;Max_cycle;Signal;HPM_P1;HPM_P2
2022/07/04 00:02:05;;;;;;;3.45;0.90;;;16.00;68.90;;;;;;5053628;28;20020;-48
2022/07/04 00:04:31;;;;;;;3.70;1.55;;;15.90;69.10;;;;;;5054313;28;20444;-50
2022/07/04 00:06:56;;;;;;;5.25;1.00;;;15.90;69.40;;;;;;5052737;28;20033;-47
2022/07/04 00:09:22;;;;;;;2.00;1.73;;;15.90;69.50;;;;;;5053489;28;20488;-48
2022/07/04 00:11:48;;;;;;;1.33;1.10;;;15.90;69.50;;;;;;5052511;28;20017;-48
2022/07/04 00:14:15;;;;;;;3.17;1.23;;;16.00;69.40;;;;;;5054314;28;20032;-48
2022/07/04 00:16:41;;;;;;;1.00;0.88;;;16.00;69.50;;;;;;5052343;28;20021;-49
2022/07/04 00:19:06;;;;;;;4.20;1.95;;;15.90;69.80;;;;;;5052199;28;20033;-50
2022/07/04 00:21:32;;;;;;;1.77;1.33;;;16.00;69.60;;;;;;5053335;28;20029;-49
2022/07/04 00:23:58;;;;;;;2.75;1.00;;;16.00;69.60;;;;;;5053839;28;20021;-48
2022/07/04 00:26:24;;;;;;;4.03;1.27;;;16.00;69.60;;;;;;5053810;28;20424;-50
2022/07/04 00:28:50;;;;;;;0.75;0.75;;;16.10;69.50;;;;;;5054446;28;20126;-49
2022/07/04 00:31:15;;;;;;;2.00;1.15;;;16.10;69.30;;;;;;5052864;28;20039;-48
2022/07/04 00:33:41;;;;;;;1.10;1.00;;;15.90;70.00;;;;;;5053938;28;20033;-48
2022/07/04 00:36:07;;;;;;;3.83;1.30;;;15.90;69.90;;;;;;5053636;28;20068;-48
2022/07/04 00:38:32;;;;;;;3.47;1.05;;;16.00;69.90;;;;;;5053740;28;20416;-50
2022/07/04 00:40:58;;;;;;;3.38;1.30;;;16.00;69.80;;;;;;5053406;28;20079;-49
2022/07/04 00:43:25;;;;;;;2.15;1.40;;;15.90;70.20;;;;;;5053376;28;20096;-48
2022/07/04 00:45:51;;;;;;;1.67;1.30;;;16.00;70.00;;;;;;5053874;28;20029;-50
2022/07/04 00:48:18;;;;;;;1.38;0.90;;;16.10;69.70;;;;;;5053191;28;20401;-48
2022/07/04 00:50:46;;;;;;;3.00;1.40;;;16.10;69.80;;;;;;5052870;28;20033;-48
2022/07/04 00:53:12;;;;;;;3.30;0.90;;;16.00;70.10;;;;;;5052984;28;20544;-48
2022/07/04 00:55:39;;;;;;;3.17;1.10;;;16.00;70.00;;;;;;5052736;28;20056;-50
2022/07/04 00:58:06;;;;;;;7.00;1.90;;;16.00;70.20;;;;;;5052439;28;20509;-48
2022/07/04 01:00:31;;;;;;;1.38;1.20;;;15.90;70.60;;;;;;5052479;28;20068;-50
2022/07/04 01:02:57;;;;;;;4.07;1.08;;;15.80;71.50;;;;;;5052393;28;20052;-48
2022/07/04 01:05:22;;;;;;;1.88;1.33;;;15.70;71.60;;;;;;5055406;28;20071;-48
2022/07/04 01:07:49;;;;;;;2.70;1.30;;;15.60;72.20;;;;;;5056354;28;20051;-48
2022/07/04 01:10:15;;;;;;;2.00;1.70;;;15.60;72.30;;;;;;5056081;28;20090;-48
2022/07/04 01:12:41;;;;;;;2.75;1.40;;;15.60;72.40;;;;;;5056158;28;20529;-49
2022/07/04 01:15:08;;;;;;;5.50;2.80;;;15.60;72.60;;;;;;5056610;28;20025;-47
2022/07/04 01:17:34;;;;;;;1.42;1.10;;;15.50;72.60;;;;;;5055917;28;20128;-48
2022/07/04 01:20:00;;;;;;;3.45;1.63;;;15.60;72.60;;;;;;5055990;28;20032;-50
2022/07/04 01:22:25;;;;;;;2.05;1.55;;;15.50;73.10;;;;;;5055898;28;20469;-51
2022/07/04 01:24:51;;;;;;;6.50;2.08;;;15.50;73.40;;;;;;5056171;28;20061;-49
2022/07/04 01:27:18;;;;;;;4.78;1.48;;;15.50;73.60;;;;;;5055920;28;20033;-51
2022/07/04 01:29:44;;;;;;;1.77;1.48;;;15.40;74.00;;;;;;5055744;28;20059;-47
2022/07/04 01:32:10;;;;;;;3.10;1.65;;;15.50;74.10;;;;;;5055889;28;20043;-48
2022/07/04 01:34:36;;;;;;;2.78;1.35;;;15.50;74.00;;;;;;5055935;28;20029;-50
2022/07/04 01:37:02;;;;;;;2.67;1.73;;;15.50;74.20;;;;;;5055736;28;20033;-48
2022/07/04 01:39:29;;;;;;;2.95;1.70;;;15.40;74.40;;;;;;5055845;28;20025;-47
2022/07/04 01:41:55;;;;;;;2.33;1.50;;;15.40;74.60;;;;;;5055668;28;20017;-51
2022/07/04 01:44:21;;;;;;;3.58;1.95;;;15.40;74.40;;;;;;5055598;28;20023;-48
2022/07/04 01:46:47;;;;;;;5.40;1.95;;;15.30;74.90;;;;;;5055590;28;20508;-49
2022/07/04 01:49:12;;;;;;;4.45;2.20;;;15.20;75.50;;;;;;5055457;28;20021;-49
2022/07/04 01:51:48;;;;;;;5.30;2.17;;;15.20;75.80;;;;;;5055530;28;20025;-50
2022/07/04 01:54:14;;;;;;;3.17;1.98;;;15.20;75.50;;;;;;5054188;28;20507;-47
2022/07/04 01:56:40;;;;;;;4.10;1.50;;;15.10;75.80;;;;;;5055409;28;20021;-47
2022/07/04 01:59:06;;;;;;;3.30;1.88;;;15.10;76.30;;;;;;5055231;28;20477;-49
2022/07/04 02:01:32;;;;;;;6.40;2.30;;;15.10;76.50;;;;;;5055606;28;20028;-48
2022/07/04 02:04:00;;;;;;;1.95;1.77;;;15.10;76.60;;;;;;5056405;28;20023;-49
2022/07/04 02:06:26;;;;;;;3.17;2.13;;;15.00;76.60;;;;;;5055657;28;20029;-51
2022/07/04 02:14:21;;;;;;;6.85;2.72;;;15.00;77.00;;;;;;5055624;28;20032;-47
2022/07/04 02:16:47;;;;;;;7.05;2.25;;;14.90;77.10;;;;;;5054884;28;20024;-50
2022/07/04 02:19:12;;;;;;;4.03;2.03;;;14.90;77.30;;;;;;5055142;28;20029;-48
2022/07/04 02:21:38;;;;;;;4.22;2.20;;;15.00;77.30;;;;;;5053962;28;20033;-47
2022/07/04 02:24:04;;;;;;;5.22;2.53;;;14.80;77.60;;;;;;5055056;28;20025;-49
2022/07/04 02:26:30;;;;;;;8.10;2.22;;;14.80;78.10;;;;;;5054780;28;20056;-48
2022/07/04 02:28:56;;;;;;;8.85;2.47;;;14.70;78.50;;;;;;5054854;28;20057;-47
2022/07/04 02:31:21;;;;;;;4.78;2.25;;;14.50;79.10;;;;;;5054869;28;20049;-48
2022/07/04 02:33:47;;;;;;;2.85;2.25;;;14.60;79.30;;;;;;5053381;28;20029;-48
2022/07/04 02:36:13;;;;;;;4.53;1.70;;;14.60;79.00;;;;;;5054933;28;20064;-48
2022/07/04 02:38:38;;;;;;;4.47;1.90;;;14.60;79.40;;;;;;5054546;28;20017;-51
2022/07/04 02:41:04;;;;;;;4.28;2.00;;;14.50;79.50;;;;;;5054500;28;20028;-48
2022/07/04 02:43:29;;;;;;;5.57;1.80;;;14.60;79.50;;;;;;5054444;28;20369;-50
2022/07/04 02:45:55;;;;;;;3.92;2.10;;;14.50;79.70;;;;;;5054552;28;20021;-49
2022/07/04 02:48:21;;;;;;;7.10;2.70;;;14.40;80.30;;;;;;5054850;28;20107;-47
2022/07/04 02:50:46;;;;;;;5.38;2.80;;;14.40;80.30;;;;;;5054793;28;20489;-49
2022/07/04 02:53:12;;;;;;;3.33;2.22;;;14.40;80.20;;;;;;5054303;28;20531;-49
2022/07/04 02:55:38;;;;;;;5.75;2.78;;;14.50;80.50;;;;;;5054549;28;20021;-48
2022/07/04 02:58:03;;;;;;;7.38;2.38;;;14.50;80.40;;;;;;5054668;28;20438;-48
2022/07/04 20:17:21;;;;;;;3.92;1.75;;;20.80;53.70;;;;;;5111600;27;20388;-49
2022/07/04 20:19:48;;;;;;;5.53;1.95;;;20.80;53.90;;;;;;5111188;28;20419;-49
2022/07/04 20:22:14;;;;;;;5.05;1.65;;;20.80;53.60;;;;;;5111238;28;20024;-49
2022/07/04 20:24:51;;;;;;;2.22;1.50;;;20.80;53.50;;;;;;5110637;28;20038;-50
2022/07/04 20:27:19;;;;;;;2.42;1.60;;;20.80;53.50;;;;;;5110661;28;20059;-48
2022/07/04 20:29:46;;;;;;;2.03;1.55;;;20.80;53.20;;;;;;5110800;28;20023;-48
2022/07/04 20:32:13;;;;;;;7.00;1.63;;;20.80;53.60;;;;;;5110722;28;20107;-50
2022/07/04 20:34:39;;;;;;;3.63;2.42;;;20.80;53.50;;;;;;5110445;28;20446;-49
2022/07/04 20:37:06;;;;;;;6.38;1.90;;;20.80;53.50;;;;;;5110755;28;20028;-48
2022/07/04 20:39:33;;;;;;;2.17;1.67;;;20.70;53.60;;;;;;5110530;28;20020;-49
2022/07/04 20:42:00;;;;;;;3.22;1.88;;;20.70;53.80;;;;;;5110568;28;20020;-49
2022/07/04 20:44:25;;;;;;;3.58;2.08;;;20.60;53.80;;;;;;5111766;28;20024;-47
2022/07/04 20:46:51;;;;;;;4.40;2.42;;;20.60;54.00;;;;;;5111076;28;20465;-50
2022/07/04 20:49:17;;;;;;;2.65;1.60;;;20.60;54.00;;;;;;5111380;28;20028;-48
2022/07/04 20:51:45;;;;;;;2.20;1.67;;;20.70;53.60;;;;;;5111015;28;20027;-50
2022/07/04 20:54:13;;;;;;;3.03;1.75;;;20.50;53.60;;;;;;5110663;28;20062;-49
2022/07/04 20:56:38;;;;;;;2.28;1.80;;;20.60;53.50;;;;;;5110701;28;20052;-49
2022/07/04 20:59:04;;;;;;;4.03;1.50;;;20.70;53.00;;;;;;5110707;28;20020;-49
2022/07/04 21:01:30;;;;;;;3.42;1.83;;;20.70;53.10;;;;;;5110744;28;20024;-50
2022/07/04 21:03:57;;;;;;;4.68;1.95;;;20.50;53.20;;;;;;5110575;28;20020;-48
2022/07/04 21:06:22;;;;;;;6.20;2.03;;;20.50;53.40;;;;;;5110615;28;20024;-49
2022/07/04 21:08:48;;;;;;;3.22;1.63;;;20.50;53.70;;;;;;5109509;28;20058;-50
2022/07/04 21:11:14;;;;;;;2.55;1.52;;;20.40;53.80;;;;;;5111155;28;20020;-49
2022/07/04 21:13:40;;;;;;;3.28;1.65;;;20.40;54.20;;;;;;5109591;28;20034;-48
2022/07/04 21:16:07;;;;;;;6.15;1.60;;;20.30;54.40;;;;;;5110578;28;20044;-47
2022/07/04 21:18:34;;;;;;;3.53;1.98;;;20.30;54.50;;;;;;5110258;28;20104;-48
2022/07/04 21:21:00;;;;;;;5.90;1.92;;;20.30;54.90;;;;;;5110199;28;20058;-47
2022/07/04 21:23:26;;;;;;;1.60;1.50;;;20.20;55.00;;;;;;5110754;28;20384;-51
2022/07/04 21:25:52;;;;;;;4.38;1.98;;;20.10;55.50;;;;;;5109218;28;20024;-49
2022/07/04 21:28:17;;;;;;;4.05;1.58;;;19.90;56.00;;;;;;5099032;28;20057;-48
2022/07/04 21:30:43;;;;;;;3.38;1.63;;;19.80;56.40;;;;;;5096661;28;20106;-49
2022/07/04 21:33:09;;;;;;;3.55;1.55;;;19.70;56.90;;;;;;5097091;28;20480;-48
2022/07/04 21:35:34;;;;;;;1.92;1.70;;;19.60;57.10;;;;;;5096906;28;20365;-48
2022/07/04 21:38:00;;;;;;;3.35;1.60;;;19.50;57.40;;;;;;5096335;28;20437;-48
2022/07/04 21:40:27;;;;;;;4.72;1.83;;;19.40;57.70;;;;;;5096187;28;20026;-48
2022/07/04 21:42:53;;;;;;;3.53;1.52;;;19.40;58.10;;;;;;5096336;28;20027;-49
2022/07/04 21:45:19;;;;;;;3.00;1.83;;;19.30;58.30;;;;;;5096441;28;20036;-47
2022/07/04 21:47:45;;;;;;;6.25;3.63;;;19.30;58.50;;;;;;5096088;28;20509;-55
2022/07/04 21:50:10;;;;;;;8.82;2.47;;;19.30;58.70;;;;;;5095851;28;20024;-51
2022/07/04 21:52:37;;;;;;;3.55;1.90;;;19.30;58.90;;;;;;5096809;28;20028;-50
2022/07/04 21:55:03;;;;;;;7.10;1.23;;;19.20;59.20;;;;;;5096260;28;20028;-50
2022/07/04 21:57:29;;;;;;;5.80;2.65;;;19.20;59.40;;;;;;5095337;28;20078;-47
2022/07/04 21:59:55;;;;;;;1.58;1.48;;;19.10;59.50;;;;;;5095587;28;20020;-47
2022/07/04 22:02:20;;;;;;;2.15;1.60;;;19.10;59.60;;;;;;5097383;28;20020;-49
2022/07/04 22:04:46;;;;;;;3.33;1.40;;;19.10;59.80;;;;;;5095773;28;20122;-49
2022/07/04 22:07:11;;;;;;;1.50;1.40;;;19.00;60.00;;;;;;5095683;28;20098;-49
2022/07/04 22:09:37;;;;;;;3.03;1.67;;;18.90;60.30;;;;;;5094639;28;20029;-48
2022/07/04 22:12:03;;;;;;;3.10;2.03;;;18.90;60.50;;;;;;5095569;28;20024;-50
2022/07/04 22:14:28;;;;;;;2.45;1.70;;;18.80;60.60;;;;;;5095444;28;20032;-48
2022/07/04 22:16:57;;;;;;;6.90;1.55;;;18.80;60.90;;;;;;5095544;28;20048;-48
2022/07/04 22:19:23;;;;;;;5.88;1.42;;;18.70;61.10;;;;;;5096130;28;20016;-48
2022/07/04 22:21:49;;;;;;;2.40;1.52;;;18.60;61.40;;;;;;5095486;28;20016;-48
2022/07/04 22:24:15;;;;;;;1.77;1.65;;;18.50;61.60;;;;;;5094714;28;20360;-48
2022/07/04 22:26:40;;;;;;;4.03;1.48;;;18.50;61.80;;;;;;5093940;28;20124;-50
2022/07/04 22:29:06;;;;;;;4.70;2.28;;;18.30;62.30;;;;;;5094985;28;20468;-50
2022/07/04 22:31:31;;;;;;;3.70;1.50;;;18.30;62.30;;;;;;5095155;28;20073;-48
2022/07/04 22:33:57;;;;;;;4.53;1.63;;;18.30;62.40;;;;;;5095306;28;20028;-51
2022/07/04 22:36:23;;;;;;;1.70;1.60;;;18.30;62.60;;;;;;5095079;28;20024;-47
2022/07/04 22:38:49;;;;;;;2.70;1.60;;;18.30;62.90;;;;;;5093873;28;20069;-50
2022/07/04 22:41:15;;;;;;;5.60;1.40;;;18.20;63.00;;;;;;5095321;28;20023;-49
2022/07/04 22:43:40;;;;;;;1.48;1.20;;;18.20;63.10;;;;;;5095151;28;20020;-49
2022/07/04 22:46:06;;;;;;;6.40;1.90;;;18.10;63.40;;;;;;5093561;28;20392;-48
2022/07/04 22:48:32;;;;;;;3.85;2.08;;;18.10;63.50;;;;;;5094883;28;20088;-48
2022/07/04 22:51:13;;;;;;;1.50;1.40;;;18.20;63.40;;;;;;5094832;28;20028;-48
2022/07/04 22:56:29;;;;;;;4.07;1.92;;;18.20;63.60;;;;;;5094882;28;20170;-48
2022/07/04 22:58:56;;;;;;;2.20;1.52;;;18.10;63.60;;;;;;5095291;28;20457;-49
2022/07/04 23:01:22;;;;;;;4.40;1.65;;;18.00;63.90;;;;;;5094774;28;20020;-49
2022/07/04 23:03:48;;;;;;;2.00;1.80;;;18.00;64.20;;;;;;5094809;28;20085;-47
2022/07/04 23:06:14;;;;;;;2.83;1.80;;;17.90;64.30;;;;;;5094974;28;20123;-50
2022/07/04 23:08:40;;;;;;;4.25;1.92;;;17.90;64.40;;;;;;5093850;28;20054;-48
2022/07/04 23:11:05;;;;;;;1.58;1.40;;;17.90;64.60;;;;;;5093673;28;20028;-48
2022/07/04 23:13:31;;;;;;;2.72;1.92;;;17.90;64.60;;;;;;5093112;28;20106;-47
2022/07/04 23:15:57;;;;;;;4.10;1.70;;;17.90;64.60;;;;;;5093878;28;20051;-48
2022/07/04 23:18:23;;;;;;;4.63;2.22;;;17.90;64.60;;;;;;5094031;28;20444;-49
2022/07/04 23:20:48;;;;;;;2.70;1.70;;;17.90;64.80;;;;;;5094156;28;20043;-48
2022/07/04 23:23:14;;;;;;;1.75;1.48;;;17.90;64.80;;;;;;5094033;28;20024;-48
2022/07/04 23:25:40;;;;;;;1.83;1.60;;;17.80;65.00;;;;;;5094075;28;20031;-48
2022/07/04 23:28:06;;;;;;;2.75;1.95;;;17.80;65.20;;;;;;5093839;28;20047;-49
2022/07/04 23:30:31;;;;;;;7.10;2.03;;;17.70;65.40;;;;;;5093686;28;20494;-48
2022/07/04 23:32:57;;;;;;;4.13;2.22;;;17.70;65.70;;;;;;5092634;28;20102;-51
2022/07/04 23:35:23;;;;;;;3.47;1.80;;;17.50;66.00;;;;;;5092891;28;20034;-47
2022/07/04 23:37:49;;;;;;;2.05;1.50;;;17.50;66.10;;;;;;5093884;28;20024;-49
2022/07/04 23:40:14;;;;;;;4.35;1.90;;;17.50;66.20;;;;;;5092702;28;20099;-48
2022/07/04 23:42:40;;;;;;;3.75;1.80;;;17.40;66.50;;;;;;5094258;28;20024;-48
2022/07/04 23:45:06;;;;;;;2.38;1.25;;;17.30;66.60;;;;;;5092452;28;20028;-49
2022/07/04 23:47:32;;;;;;;4.80;1.75;;;17.30;66.70;;;;;;5093924;28;20024;-47
2022/07/04 23:49:58;;;;;;;4.22;1.55;;;17.30;66.80;;;;;;5092161;28;20038;-47
2022/07/04 23:52:24;;;;;;;4.25;2.03;;;17.30;66.70;;;;;;5093335;28;20020;-49
2022/07/04 23:54:49;;;;;;;2.75;2.08;;;17.30;66.80;;;;;;5093379;28;20028;-47
2022/07/04 23:57:15;;;;;;;3.83;1.77;;;17.30;67.10;;;;;;5092032;28;20024;-47
2022/07/04 23:59:41;;;;;;;4.53;2.03;;;17.20;67.10;;;;;;5093259;28;20028;-49
